Time;durP1;ratioP1;P1;durP2;ratioP2;P2;SDS_P1;SDS_P2;PMS_P1;PMS_P2;Temp;Humidity;BMP_temperature;BMP_pressure;BME280_temperature;BME280_humidity;BME280_pressure;Samples;Min_cycle;Max_cycle;Signal;HPM_P1;HPM_P2
2021/03/20 00:02:52;;;;;;;8.50;7.70;;;3.90;99.90;;;;;;5131339;27;20550;-66
2021/03/20 00:05:18;;;;;;;7.37;6.50;;;3.90;99.90;;;;;;5130842;28;20379;-66
2021/03/20 00:07:44;;;;;;;7.40;6.80;;;3.80;99.90;;;;;;5110997;28;20201;-66
2021/03/20 00:10:14;;;;;;;7.40;6.70;;;3.70;99.90;;;;;;5110748;28;20422;-66
2021/03/20 00:12:42;;;;;;;9.73;6.60;;;3.70;99.90;;;;;;5110600;28;20384;-66
2021/03/20 00:15:10;;;;;;;7.63;6.67;;;3.60;99.90;;;;;;5110799;28;20895;-66
2021/03/20 00:17:35;;;;;;;8.30;7.60;;;3.50;99.90;;;;;;5113405;28;20421;-66
2021/03/20 00:20:03;;;;;;;8.17;7.13;;;3.50;99.90;;;;;;5130949;28;20407;-66
2021/03/20 00:22:30;;;;;;;7.33;6.73;;;3.40;99.90;;;;;;5130130;28;20184;-66
2021/03/20 00:24:56;;;;;;;7.40;6.80;;;3.40;99.90;;;;;;5129660;28;20474;-67
2021/03/20 00:27:21;;;;;;;8.10;7.30;;;3.30;99.90;;;;;;5130848;28;20884;-66
2021/03/20 00:29:47;;;;;;;8.40;7.60;;;3.30;99.90;;;;;;5130789;28;20205;-66
2021/03/20 00:32:12;;;;;;;9.87;8.00;;;3.20;99.90;;;;;;5130745;28;20217;-66
2021/03/20 00:34:39;;;;;;;7.57;6.87;;;3.20;99.90;;;;;;5130843;28;20201;-66
2021/03/20 00:37:04;;;;;;;7.93;7.23;;;3.20;99.90;;;;;;5130642;28;20150;-66
2021/03/20 00:39:30;;;;;;;8.03;7.30;;;3.20;99.90;;;;;;5129659;28;20398;-66
2021/03/20 00:41:55;;;;;;;9.40;8.50;;;3.20;99.90;;;;;;5130510;28;20443;-66
2021/03/20 00:44:21;;;;;;;7.63;6.93;;;3.20;99.90;;;;;;5130445;28;20157;-66
2021/03/20 00:46:47;;;;;;;7.90;7.23;;;3.20;99.90;;;;;;5130372;28;20264;-66
2021/03/20 00:49:12;;;;;;;9.17;8.27;;;3.10;99.90;;;;;;5130567;27;20181;-66
2021/03/20 00:51:38;;;;;;;7.70;7.00;;;3.10;99.90;;;;;;5130406;28;20218;-66
2021/03/20 00:54:04;;;;;;;8.47;7.67;;;3.10;99.90;;;;;;5130312;27;20247;-66
2021/03/20 00:56:29;;;;;;;8.23;7.33;;;3.10;99.90;;;;;;5128181;28;20221;-66
2021/03/20 00:58:55;;;;;;;8.53;7.20;;;3.00;99.90;;;;;;5130194;27;20893;-66
2021/03/20 01:01:22;;;;;;;7.50;6.80;;;3.00;99.90;;;;;;5130087;28;20450;-66
2021/03/20 01:03:48;;;;;;;6.80;6.20;;;3.00;99.90;;;;;;5130442;27;20146;-66
2021/03/20 01:06:19;;;;;;;7.93;7.20;;;2.90;99.90;;;;;;5130176;27;20481;-66
2021/03/20 01:08:45;;;;;;;7.63;6.93;;;2.90;99.90;;;;;;5130000;27;20398;-66
2021/03/20 01:11:12;;;;;;;7.90;7.10;;;2.90;99.90;;;;;;5129855;27;20445;-66
2021/03/20 01:13:38;;;;;;;7.60;6.93;;;2.90;99.90;;;;;;5118815;28;20426;-66
2021/03/20 01:16:04;;;;;;;8.00;6.93;;;2.90;99.90;;;;;;5116404;28;20764;-66
2021/03/20 01:18:30;;;;;;;7.07;6.33;;;2.80;99.90;;;;;;5105384;28;20416;-66
2021/03/20 01:20:56;;;;;;;6.50;5.90;;;2.80;99.90;;;;;;5094424;28;20439;-66
2021/03/20 01:23:22;;;;;;;7.80;7.00;;;2.80;99.90;;;;;;5095612;28;20408;-66
2021/03/20 01:25:48;;;;;;;6.70;6.03;;;2.70;99.90;;;;;;5095582;28;20162;-66
2021/03/20 01:28:14;;;;;;;7.47;6.63;;;2.70;99.90;;;;;;5095524;28;20436;-66
2021/03/20 01:30:43;;;;;;;8.83;5.97;;;2.60;99.90;;;;;;5096269;28;20185;-66
2021/03/20 01:33:09;;;;;;;5.80;5.20;;;2.60;99.90;;;;;;5094301;28;20157;-66
2021/03/20 01:35:35;;;;;;;5.63;5.20;;;2.60;99.90;;;;;;5094136;28;20944;-66
2021/03/20 01:38:03;;;;;;;4.30;3.90;;;2.50;99.90;;;;;;5095426;28;20752;-66
2021/03/20 01:40:33;;;;;;;5.33;4.83;;;2.50;99.90;;;;;;5095336;28;20419;-66
2021/03/20 01:42:59;;;;;;;4.53;4.13;;;2.40;99.90;;;;;;5095399;28;20393;-66
2021/03/20 01:45:27;;;;;;;5.40;4.40;;;2.40;99.90;;;;;;5095177;28;20404;-66
2021/03/20 01:48:17;;;;;;;4.73;4.33;;;2.30;99.90;;;;;;5095946;28;20564;-66
2021/03/20 01:53:50;;;;;;;4.73;4.23;;;2.30;99.90;;;;;;5131347;27;20503;-65
2021/03/20 01:56:18;;;;;;;6.33;5.10;;;2.30;99.90;;;;;;5130424;28;20395;-65
2021/03/20 01:58:46;;;;;;;6.13;4.97;;;2.30;99.90;;;;;;5131413;28;20440;-65
2021/03/20 02:01:17;;;;;;;5.37;4.90;;;2.20;99.90;;;;;;5131479;28;20450;-65
2021/03/20 02:03:43;;;;;;;5.27;4.77;;;2.20;99.90;;;;;;5131019;28;20397;-65
2021/03/20 02:06:10;;;;;;;4.80;4.30;;;2.20;99.90;;;;;;5113913;28;20400;-65
2021/03/20 02:08:40;;;;;;;6.80;5.57;;;2.20;99.90;;;;;;5109348;28;20154;-65
2021/03/20 02:14:16;;;;;;;4.40;4.00;;;2.10;99.90;;;;;;5110803;27;20512;-65
2021/03/20 02:22:39;;;;;;;5.30;4.70;;;2.10;99.90;;;;;;5123110;27;20516;-65
2021/03/20 02:25:31;;;;;;;6.23;4.97;;;2.00;99.90;;;;;;5110004;28;20583;-65
2021/03/20 02:28:27;;;;;;;5.20;4.70;;;2.00;99.90;;;;;;5110763;28;20380;-65
2021/03/20 02:33:46;;;;;;;5.00;4.57;;;1.90;99.90;;;;;;5131306;27;20878;-65
2021/03/20 02:38:54;;;;;;;6.87;5.10;;;1.90;99.90;;;;;;5106569;27;20560;-65
2021/03/20 02:41:27;;;;;;;5.00;4.50;;;1.80;99.90;;;;;;5090411;28;20421;-65
2021/03/20 02:44:04;;;;;;;4.60;4.13;;;1.80;99.90;;;;;;5090532;28;20475;-65
2021/03/20 02:46:40;;;;;;;7.60;5.10;;;1.80;99.90;;;;;;5090332;28;20799;-65
2021/03/20 02:57:44;;;;;;;4.67;4.07;;;1.70;99.90;;;;;;5093341;27;20568;-65
2021/03/20 03:00:18;;;;;;;4.17;3.30;;;1.60;99.90;;;;;;5090494;28;20399;-65
2021/03/20 03:02:48;;;;;;;3.97;3.57;;;1.70;99.90;;;;;;5090598;28;20397;-65
2021/03/20 03:05:17;;;;;;;4.77;3.50;;;1.60;99.90;;;;;;5090423;28;20380;-65
2021/03/20 03:08:06;;;;;;;4.23;3.67;;;1.60;99.90;;;;;;5090177;28;20388;-65
2021/03/20 03:10:37;;;;;;;4.30;3.90;;;1.60;99.90;;;;;;5075517;28;20409;-66
2021/03/20 03:13:24;;;;;;;4.37;4.03;;;1.60;99.90;;;;;;5072066;28;20398;-65
2021/03/20 03:15:56;;;;;;;4.73;3.70;;;1.50;99.90;;;;;;5075285;28;20428;-65
2021/03/20 03:18:28;;;;;;;5.47;4.47;;;1.50;99.90;;;;;;5090079;28;20457;-65
2021/03/20 03:20:57;;;;;;;4.10;3.67;;;1.50;99.90;;;;;;5072813;28;20389;-65
2021/03/20 03:23:26;;;;;;;4.70;3.63;;;1.50;99.90;;;;;;5071922;28;20391;-66
2021/03/20 03:25:59;;;;;;;5.67;4.07;;;1.50;99.90;;;;;;5089986;28;20408;-66
2021/03/20 03:28:28;;;;;;;4.23;3.80;;;1.50;99.90;;;;;;5090098;28;20879;-65
2021/03/20 03:31:01;;;;;;;5.20;4.00;;;1.50;99.90;;;;;;5071545;28;20866;-65
2021/03/20 03:33:30;;;;;;;4.37;3.80;;;1.50;99.90;;;;;;5090045;28;20531;-64
2021/03/20 03:36:04;;;;;;;5.37;4.87;;;1.50;99.90;;;;;;5071837;28;20604;-64
2021/03/20 03:39:09;;;;;;;7.17;4.30;;;1.50;99.90;;;;;;5089660;28;20470;-64
2021/03/20 03:41:38;;;;;;;4.37;3.80;;;1.50;99.90;;;;;;5074467;28;20405;-64
2021/03/20 03:44:07;;;;;;;4.73;3.93;;;1.50;99.90;;;;;;5089866;28;20389;-64
2021/03/20 03:46:35;;;;;;;3.90;3.27;;;1.50;99.90;;;;;;5089489;28;20433;-64
2021/03/20 03:49:05;;;;;;;6.93;4.10;;;1.50;99.90;;;;;;5105298;28;20403;-64
2021/03/20 03:51:30;;;;;;;5.50;3.50;;;1.50;99.90;;;;;;5089436;28;20805;-64
2021/03/20 03:53:58;;;;;;;4.33;3.40;;;1.40;99.90;;;;;;5089351;28;20385;-64
2021/03/20 04:05:11;;;;;;;5.90;3.37;;;1.30;99.90;;;;;;5120672;27;20573;-64
2021/03/20 04:08:16;;;;;;;4.50;3.90;;;1.30;99.90;;;;;;5110010;28;20818;-64
2021/03/20 04:11:05;;;;;;;4.13;3.70;;;1.20;99.90;;;;;;5109664;28;20396;-64
2021/03/20 04:13:59;;;;;;;6.50;3.90;;;1.20;99.90;;;;;;5110211;28;20421;-64
2021/03/20 04:16:34;;;;;;;4.40;3.57;;;1.20;99.90;;;;;;5109637;28;20392;-64
2021/03/20 04:19:25;;;;;;;5.20;4.20;;;1.10;99.90;;;;;;5109369;28;20843;-64
2021/03/20 04:22:01;;;;;;;6.80;5.33;;;1.10;99.90;;;;;;5109411;28;20476;-64
2021/03/20 04:27:08;;;;;;;5.28;4.65;;;1.00;99.90;;;;;;5131511;27;21089;-64
2021/03/20 04:34:59;;;;;;;6.35;3.97;;;0.90;99.90;;;;;;5131238;27;20560;-64
2021/03/20 04:37:29;;;;;;;7.07;4.00;;;0.90;99.90;;;;;;5130055;28;20182;-64
2021/03/20 04:39:56;;;;;;;4.38;3.97;;;0.80;99.90;;;;;;5111148;28;20389;-64
2021/03/20 04:42:32;;;;;;;4.75;4.18;;;0.80;99.90;;;;;;5110766;28;20162;-64
2021/03/20 04:45:03;;;;;;;6.03;4.07;;;0.80;99.90;;;;;;5110614;28;20209;-64
2021/03/20 04:47:32;;;;;;;4.80;4.30;;;0.80;99.90;;;;;;5109267;28;20409;-64
2021/03/20 04:50:04;;;;;;;9.77;4.03;;;0.70;99.90;;;;;;5110559;28;20759;-64
2021/03/20 04:52:39;;;;;;;6.22;4.55;;;0.70;99.90;;;;;;5110349;28;20437;-64
2021/03/20 04:55:07;;;;;;;5.45;4.07;;;0.70;99.90;;;;;;5111252;28;20170;-64
2021/03/20 04:57:44;;;;;;;5.25;4.10;;;0.60;99.90;;;;;;5110457;28;20146;-64
2021/03/20 05:00:24;;;;;;;4.65;3.65;;;0.60;99.90;;;;;;5110325;28;20232;-64
2021/03/20 05:02:58;;;;;;;4.25;3.85;;;0.60;99.90;;;;;;5110304;28;20153;-64
2021/03/20 05:05:31;;;;;;;4.57;4.18;;;0.60;99.90;;;;;;5110352;28;20522;-64
2021/03/20 05:08:03;;;;;;;5.40;3.63;;;0.60;99.90;;;;;;5110350;28;20177;-64
2021/03/20 05:13:12;;;;;;;4.68;4.07;;;0.60;99.90;;;;;;5115763;27;20874;-64
2021/03/20 05:15:38;;;;;;;5.30;3.90;;;0.60;99.90;;;;;;5110992;28;20163;-64
2021/03/20 05:18:04;;;;;;;5.83;4.20;;;0.50;99.90;;;;;;5110709;28;20166;-64
2021/03/20 05:20:30;;;;;;;4.50;4.10;;;0.50;99.90;;;;;;5110840;28;20158;-64
2021/03/20 05:22:55;;;;;;;6.43;4.20;;;0.50;99.90;;;;;;5111151;28;20773;-64
2021/03/20 05:25:24;;;;;;;7.70;4.40;;;0.50;99.90;;;;;;5109314;28;20229;-64
2021/03/20 05:27:51;;;;;;;5.70;3.85;;;0.40;99.90;;;;;;5109661;28;20187;-64
2021/03/20 05:30:20;;;;;;;4.53;3.72;;;0.40;99.90;;;;;;5110417;28;20173;-64
2021/03/20 05:32:46;;;;;;;6.80;4.10;;;0.40;99.90;;;;;;5110563;28;20190;-64
2021/03/20 05:35:21;;;;;;;11.67;3.57;;;0.40;99.90;;;;;;5110754;28;20390;-64
2021/03/20 05:37:47;;;;;;;5.50;3.37;;;0.40;99.90;;;;;;5109504;28;20413;-64
2021/03/20 05:40:32;;;;;;;6.00;4.70;;;0.40;99.90;;;;;;5110145;28;20773;-64
2021/03/20 05:45:42;;;;;;;4.97;3.58;;;0.40;99.90;;;;;;5128634;27;20537;-64
2021/03/20 05:48:22;;;;;;;5.75;4.45;;;0.40;99.90;;;;;;5110957;28;20166;-63
2021/03/20 06:02:55;;;;;;;4.65;4.05;;;0.40;99.90;;;;;;5128623;27;20577;-66
2021/03/20 06:05:51;;;;;;;4.80;4.35;;;0.40;99.90;;;;;;5111029;28;20172;-63
2021/03/20 06:08:42;;;;;;;5.53;4.10;;;0.50;99.90;;;;;;5110055;28;20246;-63
2021/03/20 06:14:22;;;;;;;4.50;4.10;;;0.50;99.90;;;;;;5131432;27;20527;-64
2021/03/20 06:17:27;;;;;;;6.30;5.07;;;0.70;99.90;;;;;;5130735;28;20390;-64
2021/03/20 06:20:11;;;;;;;5.85;4.25;;;0.70;99.90;;;;;;5110588;28;20414;-64
2021/03/20 06:28:36;;;;;;;6.50;4.33;;;0.80;99.90;;;;;;5131696;27;20508;-64
2021/03/20 06:31:12;;;;;;;6.40;4.20;;;0.90;99.90;;;;;;5131589;28;20456;-64
2021/03/20 06:33:49;;;;;;;4.53;4.10;;;0.90;99.90;;;;;;5131567;28;20895;-64
2021/03/20 06:36:21;;;;;;;4.60;4.20;;;0.80;99.90;;;;;;5130173;28;20411;-64
2021/03/20 06:38:56;;;;;;;4.77;4.20;;;0.90;99.90;;;;;;5109629;28;20778;-64
2021/03/20 06:44:29;;;;;;;6.50;4.90;;;0.80;99.90;;;;;;5131480;27;20500;-64
2021/03/20 06:46:54;;;;;;;6.60;4.40;;;0.90;99.90;;;;;;5130320;28;20427;-64
2021/03/20 06:49:27;;;;;;;6.93;4.83;;;0.90;99.90;;;;;;5131383;28;20207;-64
2021/03/20 06:51:54;;;;;;;8.63;5.07;;;0.90;99.90;;;;;;5130422;28;20165;-64
2021/03/20 06:54:21;;;;;;;5.50;4.78;;;0.90;99.90;;;;;;5122271;27;20411;-64
2021/03/20 06:56:50;;;;;;;6.05;4.30;;;0.90;99.90;;;;;;5109685;28;20160;-64
2021/03/20 06:59:15;;;;;;;4.80;4.30;;;1.00;99.90;;;;;;5110651;28;20155;-64
2021/03/20 07:01:51;;;;;;;7.47;4.57;;;1.10;99.90;;;;;;5110542;28;20164;-64
2021/03/20 07:09:44;;;;;;;6.73;5.00;;;1.40;99.90;;;;;;5131766;27;20515;-64
2021/03/20 07:12:14;;;;;;;4.83;4.43;;;1.90;99.90;;;;;;5115412;28;20399;-64
2021/03/20 07:22:37;;;;;;;7.03;4.97;;;2.10;99.90;;;;;;5131599;27;20507;-64
2021/03/20 07:30:55;;;;;;;6.63;5.03;;;3.10;99.90;;;;;;5131689;27;20507;-65
2021/03/20 07:33:42;;;;;;;5.97;5.23;;;3.40;99.90;;;;;;5131705;27;20456;-66
2021/03/20 07:36:30;;;;;;;5.87;4.90;;;3.50;99.90;;;;;;5130795;28;20390;-66
2021/03/20 07:42:06;;;;;;;6.33;4.27;;;3.60;99.90;;;;;;5131477;27;20556;-64
2021/03/20 07:47:29;;;;;;;6.27;4.83;;;4.00;99.90;;;;;;5131379;27;20527;-64
2021/03/20 07:53:16;;;;;;;4.90;3.83;;;4.30;99.90;;;;;;5131552;27;21004;-65
2021/03/20 07:58:37;;;;;;;4.60;3.77;;;4.10;99.90;;;;;;5131596;27;20868;-65
2021/03/20 08:01:07;;;;;;;4.50;4.07;;;3.90;99.90;;;;;;5131376;28;20382;-65
2021/03/20 08:03:55;;;;;;;5.47;4.50;;;3.80;99.90;;;;;;5112211;28;20411;-65
2021/03/20 08:06:24;;;;;;;5.70;4.33;;;3.70;99.90;;;;;;5110711;28;20399;-64
2021/03/20 08:09:25;;;;;;;4.73;3.87;;;3.80;99.90;;;;;;5109519;28;20394;-64
2021/03/20 08:17:13;;;;;;;4.33;3.93;;;4.30;99.90;;;;;;5131822;27;21066;-64
2021/03/20 08:19:39;;;;;;;3.87;3.27;;;4.40;99.30;;;;;;5111383;28;20392;-64
2021/03/20 08:22:33;;;;;;;6.03;4.00;;;4.40;97.80;;;;;;5110843;28;20391;-64
2021/03/20 08:33:12;;;;;;;3.60;3.30;;;4.60;97.90;;;;;;5131524;27;21102;-64
2021/03/20 08:36:02;;;;;;;4.00;3.30;;;5.20;94.50;;;;;;5127660;28;20932;-64
2021/03/20 08:44:28;;;;;;;4.03;3.10;;;5.40;91.80;;;;;;5111274;27;21048;-65
2021/03/20 08:47:26;;;;;;;4.10;3.40;;;5.40;90.80;;;;;;5109879;28;20510;-65
2021/03/20 08:55:36;;;;;;;5.20;3.20;;;5.40;91.20;;;;;;5131613;27;20572;-64
2021/03/20 08:58:41;;;;;;;4.67;3.57;;;4.70;86.60;;;;;;5117341;28;20390;-64
2021/03/20 09:03:49;;;;;;;5.10;3.43;;;4.50;87.40;;;;;;5131404;27;20519;-65
2021/03/20 09:08:59;;;;;;;3.20;2.90;;;4.00;86.20;;;;;;5131699;27;20507;-64
2021/03/20 09:14:14;;;;;;;4.00;2.80;;;3.90;86.90;;;;;;5110930;27;20510;-64
2021/03/20 09:16:52;;;;;;;3.60;3.30;;;3.90;85.80;;;;;;5110780;28;20822;-64
2021/03/20 09:19:26;;;;;;;5.67;2.93;;;3.80;84.70;;;;;;5093198;28;20838;-64
2021/03/20 09:21:56;;;;;;;3.80;3.30;;;3.80;86.40;;;;;;5110711;28;20478;-64
2021/03/20 09:24:25;;;;;;;3.47;3.00;;;3.80;87.10;;;;;;5093140;28;20482;-64
2021/03/20 09:26:56;;;;;;;9.20;3.30;;;3.90;86.60;;;;;;5109830;28;20400;-64
2021/03/20 09:32:08;;;;;;;5.57;4.00;;;4.10;83.50;;;;;;5110782;27;20873;-65
2021/03/20 09:34:44;;;;;;;3.93;2.70;;;4.40;81.50;;;;;;5110834;28;20391;-64
2021/03/20 09:39:56;;;;;;;4.43;2.80;;;4.60;77.50;;;;;;5131568;27;20561;-64
2021/03/20 09:55:51;;;;;;;4.10;2.60;;;6.70;57.00;;;;;;5131462;27;20573;-66
2021/03/20 10:12:09;;;;;;;3.67;2.53;;;7.00;54.70;;;;;;5131562;27;20505;-64
2021/03/20 10:14:51;;;;;;;2.80;2.43;;;7.00;53.60;;;;;;5130339;28;20391;-64
2021/03/20 10:17:21;;;;;;;2.40;2.20;;;7.00;52.80;;;;;;5130079;28;20914;-64
2021/03/20 10:19:54;;;;;;;2.50;2.20;;;7.10;52.70;;;;;;5110903;28;20510;-65
2021/03/20 10:22:26;;;;;;;4.70;3.33;;;7.10;52.50;;;;;;5110959;28;20884;-64
2021/03/20 10:24:53;;;;;;;4.40;2.53;;;7.10;52.70;;;;;;5110930;28;20155;-64
2021/03/20 10:27:37;;;;;;;2.67;2.30;;;7.20;52.00;;;;;;5110614;28;20403;-64
2021/03/20 10:30:22;;;;;;;2.87;2.20;;;7.10;51.80;;;;;;5110448;28;20550;-64
2021/03/20 10:33:16;;;;;;;3.93;2.40;;;7.10;51.60;;;;;;5109539;28;20417;-64
2021/03/20 10:35:41;;;;;;;3.77;2.63;;;7.20;51.30;;;;;;5121766;28;20814;-64
2021/03/20 10:41:08;;;;;;;3.63;2.57;;;7.30;50.60;;;;;;5131476;27;20501;-65
2021/03/20 10:43:42;;;;;;;3.20;2.33;;;7.50;49.70;;;;;;5131427;28;20487;-64
2021/03/20 10:46:15;;;;;;;2.90;2.53;;;7.60;48.80;;;;;;5130270;28;20439;-64
2021/03/20 10:48:40;;;;;;;2.60;2.30;;;7.60;47.80;;;;;;5131388;28;20390;-64
2021/03/20 10:51:08;;;;;;;2.53;2.27;;;7.70;47.70;;;;;;5131438;27;20156;-64
2021/03/20 10:53:39;;;;;;;3.30;2.70;;;7.70;47.20;;;;;;5111753;28;20217;-64
2021/03/20 10:56:06;;;;;;;3.97;2.72;;;7.90;47.00;;;;;;5110858;28;20868;-64
2021/03/20 10:58:38;;;;;;;3.17;2.20;;;8.10;46.50;;;;;;5110499;28;20679;-64
2021/03/20 11:01:04;;;;;;;4.30;2.50;;;8.20;46.20;;;;;;5110473;28;20396;-64
2021/03/20 11:03:40;;;;;;;4.23;2.60;;;8.30;46.20;;;;;;5110665;28;20396;-64
2021/03/20 11:09:20;;;;;;;3.53;2.60;;;8.50;46.50;;;;;;5126664;27;20567;-64
2021/03/20 11:11:46;;;;;;;3.97;3.00;;;8.50;45.70;;;;;;5109613;28;20396;-64
2021/03/20 11:17:08;;;;;;;6.30;2.20;;;8.50;45.10;;;;;;5090558;27;21091;-64
2021/03/20 11:19:37;;;;;;;2.80;2.23;;;8.70;41.70;;;;;;5089320;28;20459;-64
2021/03/20 11:22:26;;;;;;;3.77;2.20;;;8.70;40.70;;;;;;5089229;28;20370;-64
2021/03/20 11:24:54;;;;;;;4.93;2.50;;;8.70;41.00;;;;;;5089546;28;20394;-64
2021/03/20 11:27:27;;;;;;;3.50;2.50;;;8.80;43.20;;;;;;5088543;28;20401;-64
2021/03/20 11:29:58;;;;;;;10.23;2.50;;;8.80;44.60;;;;;;5089152;28;20390;-64
2021/03/20 11:32:31;;;;;;;3.17;2.87;;;8.80;45.20;;;;;;5090245;28;20394;-64
2021/03/20 11:35:06;;;;;;;4.33;3.03;;;8.70;45.80;;;;;;5088989;28;20445;-64
2021/03/20 11:37:33;;;;;;;3.30;2.37;;;8.50;45.50;;;;;;5090523;28;20385;-64
2021/03/20 11:40:00;;;;;;;5.03;2.70;;;8.40;45.30;;;;;;5090481;28;20374;-64
2021/03/20 11:42:36;;;;;;;4.10;1.80;;;8.30;44.40;;;;;;5089445;28;20442;-64
2021/03/20 11:45:06;;;;;;;2.63;2.40;;;8.10;42.70;;;;;;5089194;28;20424;-64
2021/03/20 11:47:33;;;;;;;3.73;2.53;;;8.00;40.40;;;;;;5089003;28;20421;-64
2021/03/20 11:50:04;;;;;;;2.40;2.17;;;8.00;41.30;;;;;;5089820;28;20413;-64
2021/03/20 11:52:53;;;;;;;2.63;2.00;;;7.90;41.50;;;;;;5089822;28;20394;-64
2021/03/20 11:58:05;;;;;;;2.07;1.80;;;7.60;39.60;;;;;;5110947;27;20498;-64
2021/03/20 12:00:36;;;;;;;2.57;2.10;;;7.50;40.20;;;;;;5100296;28;20414;-64
2021/03/20 12:03:09;;;;;;;2.97;2.20;;;7.40;40.10;;;;;;5089315;28;20413;-64
2021/03/20 12:05:36;;;;;;;4.40;2.50;;;7.30;41.20;;;;;;5089737;28;20473;-64
2021/03/20 12:11:05;;;;;;;2.20;1.93;;;7.20;40.60;;;;;;5131552;27;20864;-64
2021/03/20 12:13:52;;;;;;;2.73;2.27;;;7.10;40.30;;;;;;5130044;28;20406;-64
2021/03/20 12:16:27;;;;;;;2.40;2.10;;;7.00;39.50;;;;;;5130053;28;20383;-64
2021/03/20 12:19:04;;;;;;;2.60;2.10;;;6.90;39.80;;;;;;5124913;28;20403;-64
2021/03/20 12:21:29;;;;;;;2.17;1.97;;;6.90;40.40;;;;;;5130204;28;20406;-64
2021/03/20 12:23:58;;;;;;;2.67;2.43;;;7.00;40.70;;;;;;5131431;28;20400;-64
2021/03/20 12:26:31;;;;;;;2.87;2.00;;;7.00;41.40;;;;;;5131422;28;20187;-64
2021/03/20 12:32:17;;;;;;;5.10;2.50;;;6.90;41.60;;;;;;5070363;28;20887;-65
2021/03/20 12:34:42;;;;;;;2.77;1.70;;;6.90;41.80;;;;;;5057405;28;20406;-65
2021/03/20 12:37:16;;;;;;;2.77;1.80;;;6.80;41.60;;;;;;5050335;28;20395;-65
2021/03/20 12:39:42;;;;;;;3.13;2.53;;;6.80;42.00;;;;;;5050238;28;20153;-65
2021/03/20 12:42:08;;;;;;;2.73;2.50;;;6.90;42.30;;;;;;5050335;28;20426;-65
2021/03/20 12:44:42;;;;;;;2.17;1.97;;;6.90;43.70;;;;;;5050209;28;20165;-65
2021/03/20 12:47:11;;;;;;;3.80;2.13;;;6.90;42.80;;;;;;5050409;28;20202;-65
2021/03/20 12:49:37;;;;;;;3.77;2.50;;;6.80;41.20;;;;;;5048707;28;20391;-65
2021/03/20 12:52:10;;;;;;;2.47;2.27;;;6.80;40.90;;;;;;5050863;28;20767;-65
2021/03/20 12:54:40;;;;;;;2.70;2.03;;;6.70;40.10;;;;;;5050001;28;20237;-65
2021/03/20 12:57:06;;;;;;;5.80;2.53;;;6.70;40.20;;;;;;5049078;28;20399;-65
2021/03/20 12:59:32;;;;;;;3.40;3.10;;;6.70;39.80;;;;;;5050011;28;20383;-65
2021/03/20 13:01:57;;;;;;;3.00;2.43;;;6.70;40.50;;;;;;5049895;28;20391;-65
2021/03/20 13:04:23;;;;;;;2.87;2.20;;;6.60;40.50;;;;;;5048893;28;20248;-65
2021/03/20 13:06:50;;;;;;;3.13;2.40;;;6.60;39.90;;;;;;5048597;28;20383;-65
2021/03/20 13:09:17;;;;;;;2.77;1.90;;;6.60;39.80;;;;;;5049112;28;20545;-65
2021/03/20 13:11:43;;;;;;;2.47;2.27;;;6.60;40.80;;;;;;5049662;28;20874;-65
2021/03/20 13:14:09;;;;;;;4.77;2.77;;;6.50;41.40;;;;;;5049671;28;20554;-65
2021/03/20 13:16:35;;;;;;;2.87;2.63;;;6.60;42.50;;;;;;5048435;28;20268;-65
2021/03/20 13:19:01;;;;;;;3.27;2.93;;;6.50;42.00;;;;;;5049383;28;20262;-65
2021/03/20 13:21:29;;;;;;;3.70;2.20;;;6.60;42.50;;;;;;5049511;28;20485;-65
2021/03/20 13:23:55;;;;;;;3.37;1.97;;;6.60;41.20;;;;;;5049617;28;20807;-65
2021/03/20 13:26:20;;;;;;;2.70;2.33;;;6.70;40.40;;;;;;5066229;28;20418;-65
2021/03/20 13:28:46;;;;;;;3.20;2.23;;;6.80;40.80;;;;;;5069131;28;20214;-65
2021/03/20 13:31:15;;;;;;;2.60;2.27;;;6.90;40.60;;;;;;5068955;28;20206;-65
2021/03/20 13:33:42;;;;;;;3.40;2.10;;;7.10;41.60;;;;;;5067929;28;20235;-65
2021/03/20 13:36:08;;;;;;;4.00;1.73;;;7.30;41.20;;;;;;5069099;28;20445;-65
2021/03/20 13:38:34;;;;;;;2.30;2.10;;;7.50;40.40;;;;;;5067807;28;20398;-65
2021/03/20 13:40:59;;;;;;;4.30;2.33;;;7.70;40.10;;;;;;5069079;28;20725;-65
2021/03/20 13:43:25;;;;;;;2.73;2.33;;;8.00;39.60;;;;;;5054297;28;20200;-65
2021/03/20 13:45:51;;;;;;;2.60;2.30;;;8.20;38.00;;;;;;5054568;28;20271;-65
2021/03/20 13:48:17;;;;;;;6.20;2.93;;;8.30;37.70;;;;;;5055721;28;20502;-65
2021/03/20 13:50:44;;;;;;;3.90;2.67;;;8.40;38.00;;;;;;5055551;28;20196;-65
2021/03/20 13:53:16;;;;;;;4.40;2.40;;;8.40;37.50;;;;;;5054721;28;20247;-65
2021/03/20 13:55:42;;;;;;;4.43;2.20;;;8.40;37.40;;;;;;5054412;28;20406;-65
2021/03/20 13:58:07;;;;;;;3.40;2.30;;;8.40;36.80;;;;;;5055560;28;20441;-65
2021/03/20 14:00:33;;;;;;;3.30;2.27;;;8.40;37.10;;;;;;5054589;28;20908;-65
2021/03/20 14:02:59;;;;;;;4.20;3.07;;;8.40;37.60;;;;;;5054121;28;20557;-65
2021/03/20 14:05:24;;;;;;;3.77;2.83;;;8.50;39.00;;;;;;5055463;28;20160;-65
2021/03/20 14:07:50;;;;;;;3.60;2.30;;;8.50;38.20;;;;;;5055636;28;20161;-65
2021/03/20 14:10:21;;;;;;;3.50;2.60;;;8.50;38.30;;;;;;5055350;28;20207;-65
2021/03/20 14:12:47;;;;;;;6.70;2.60;;;8.50;38.10;;;;;;5053975;28;20157;-65
2021/03/20 14:15:15;;;;;;;2.73;2.20;;;8.50;38.00;;;;;;5055489;28;20398;-65
2021/03/20 14:17:40;;;;;;;3.03;2.70;;;8.60;38.10;;;;;;5050865;28;20269;-65
2021/03/20 14:20:08;;;;;;;2.57;1.97;;;8.70;36.90;;;;;;5035242;28;20487;-65
2021/03/20 14:22:34;;;;;;;4.00;2.40;;;8.80;37.30;;;;;;5034059;28;20173;-65
2021/03/20 14:25:00;;;;;;;4.20;2.30;;;8.80;36.20;;;;;;5034901;28;20400;-65
2021/03/20 14:27:25;;;;;;;2.10;1.70;;;8.80;35.10;;;;;;5034082;28;20165;-65
2021/03/20 14:29:51;;;;;;;2.83;1.80;;;8.90;36.30;;;;;;5034670;28;20428;-65
2021/03/20 14:32:17;;;;;;;3.00;2.10;;;8.90;37.50;;;;;;5035087;28;20499;-65
2021/03/20 14:34:42;;;;;;;3.30;2.33;;;9.00;37.90;;;;;;5035371;28;20211;-65
2021/03/20 14:37:08;;;;;;;3.00;2.57;;;9.00;38.20;;;;;;5034953;28;20400;-65
2021/03/20 14:39:33;;;;;;;3.90;2.13;;;9.00;37.40;;;;;;5033465;28;20630;-65
2021/03/20 14:41:59;;;;;;;2.63;2.30;;;9.00;38.40;;;;;;5034690;28;20173;-65
2021/03/20 14:44:25;;;;;;;2.53;2.27;;;9.00;38.60;;;;;;5034662;28;20200;-65
2021/03/20 14:46:51;;;;;;;5.67;1.90;;;9.00;39.20;;;;;;5033689;28;20666;-65
2021/03/20 14:49:16;;;;;;;3.47;2.10;;;9.00;38.90;;;;;;5033837;28;20166;-65
2021/03/20 14:51:42;;;;;;;3.40;2.67;;;8.90;38.60;;;;;;5033320;28;20601;-65
2021/03/20 14:54:09;;;;;;;3.70;2.30;;;8.90;40.60;;;;;;5032285;28;20581;-65
2021/03/20 14:56:35;;;;;;;2.87;2.40;;;9.00;41.80;;;;;;5033321;28;20471;-66
2021/03/20 14:59:00;;;;;;;4.93;2.63;;;9.00;41.40;;;;;;5034799;28;20427;-65
2021/03/20 15:01:27;;;;;;;2.93;2.00;;;9.10;42.50;;;;;;5033155;28;20165;-65
2021/03/20 15:03:53;;;;;;;3.47;2.13;;;9.20;40.90;;;;;;5034498;28;20168;-65
2021/03/20 15:06:18;;;;;;;4.30;2.33;;;9.20;39.70;;;;;;5034851;28;20400;-65
2021/03/20 15:08:44;;;;;;;4.03;2.70;;;9.20;40.40;;;;;;5034055;28;20169;-65
2021/03/20 15:11:10;;;;;;;14.03;11.90;;;9.10;40.50;;;;;;5034061;28;20181;-65
2021/03/20 15:13:35;;;;;;;9.43;6.10;;;9.10;40.50;;;;;;5034422;28;20211;-65
2021/03/20 15:16:02;;;;;;;5.10;3.63;;;9.10;40.90;;;;;;5034019;28;20618;-65
2021/03/20 15:21:10;;;;;;;3.77;3.00;;;9.20;43.10;;;;;;5131588;27;20507;-64
2021/03/20 15:23:40;;;;;;;3.93;2.60;;;9.30;42.60;;;;;;5127402;28;20395;-64
2021/03/20 15:26:09;;;;;;;3.30;2.63;;;9.40;44.00;;;;;;5109736;28;20450;-64
2021/03/20 15:28:34;;;;;;;2.97;2.57;;;9.50;43.10;;;;;;5110862;28;20464;-64
2021/03/20 15:31:00;;;;;;;4.40;2.70;;;9.50;43.40;;;;;;5110982;27;20472;-64
2021/03/20 15:33:27;;;;;;;4.30;2.47;;;9.50;43.20;;;;;;5111069;28;20177;-64
2021/03/20 15:35:52;;;;;;;3.13;2.10;;;9.50;43.70;;;;;;5109690;28;20170;-64
2021/03/20 15:38:18;;;;;;;3.00;2.70;;;9.50;44.10;;;;;;5111291;27;20389;-65
2021/03/20 15:40:47;;;;;;;4.30;3.03;;;9.50;44.30;;;;;;5111342;28;20512;-66
2021/03/20 15:43:16;;;;;;;14.23;3.30;;;9.50;43.80;;;;;;5109627;28;20147;-65
2021/03/20 15:45:42;;;;;;;3.83;2.53;;;9.50;44.70;;;;;;5110707;28;20416;-66
2021/03/20 15:48:08;;;;;;;2.80;2.30;;;9.40;45.60;;;;;;5110622;28;20396;-64
2021/03/20 15:50:38;;;;;;;3.30;2.50;;;9.40;45.10;;;;;;5110416;28;20504;-65
2021/03/20 15:53:04;;;;;;;7.77;3.87;;;9.40;46.50;;;;;;5110279;28;20487;-64
2021/03/20 15:55:33;;;;;;;4.47;3.17;;;9.30;46.50;;;;;;5110626;28;20401;-64
2021/03/20 15:58:00;;;;;;;4.70;3.43;;;9.30;46.20;;;;;;5110796;28;20408;-64
2021/03/20 16:00:27;;;;;;;3.43;2.80;;;9.30;46.50;;;;;;5110434;28;20493;-64
2021/03/20 16:02:53;;;;;;;5.07;3.30;;;9.30;48.20;;;;;;5110375;28;20468;-64
2021/03/20 16:05:18;;;;;;;4.43;3.20;;;9.30;47.30;;;;;;5108805;28;20496;-64
2021/03/20 16:07:45;;;;;;;3.60;3.07;;;9.20;47.80;;;;;;5110398;28;20211;-64
2021/03/20 16:10:18;;;;;;;3.53;3.03;;;9.20;48.00;;;;;;5110305;28;20822;-64
2021/03/20 16:12:43;;;;;;;3.47;2.67;;;9.10;48.60;;;;;;5110433;28;20389;-64
2021/03/20 16:15:10;;;;;;;6.27;3.30;;;9.10;49.10;;;;;;5110510;28;20592;-64
2021/03/20 16:17:35;;;;;;;3.27;2.97;;;9.00;48.80;;;;;;5108678;28;20163;-64
2021/03/20 16:20:01;;;;;;;5.27;2.77;;;9.00;49.70;;;;;;5109575;28;20460;-64
2021/03/20 16:22:28;;;;;;;3.23;2.90;;;9.00;49.70;;;;;;5109823;28;20576;-64
2021/03/20 16:24:54;;;;;;;3.63;2.87;;;9.00;51.30;;;;;;5109853;28;20412;-64
2021/03/20 16:27:19;;;;;;;4.93;3.77;;;9.00;51.90;;;;;;5109679;28;20385;-64